sensor_id;sensor_type;location;lat;lon;timestamp;P1;durP1;ratioP1;P2;durP2;ratioP2
46745;SDS011;32493;50.514;9.678;2023-04-01T00:00:17;6.65;;;1.50;;
46745;SDS011;32493;50.514;9.678;2023-04-01T00:02:24;7.93;;;1.60;;
46745;SDS011;32493;50.514;9.678;2023-04-01T00:04:29;5.15;;;1.10;;
46745;SDS011;32493;50.514;9.678;2023-04-01T00:06:34;7.80;;;1.45;;
46745;SDS011;32493;50.514;9.678;2023-04-01T00:08:40;6.80;;;1.23;;
46745;SDS011;32493;50.514;9.678;2023-04-01T00:10:48;7.15;;;1.20;;
46745;SDS011;32493;50.514;9.678;2023-04-01T00:12:54;5.25;;;1.27;;
46745;SDS011;32493;50.514;9.678;2023-04-01T00:14:59;5.35;;;1.70;;
46745;SDS011;32493;50.514;9.678;2023-04-01T00:17:05;5.03;;;1.20;;
46745;SDS011;32493;50.514;9.678;2023-04-01T00:19:10;4.30;;;1.25;;
46745;SDS011;32493;50.514;9.678;2023-04-01T00:21:16;6.13;;;1.20;;
46745;SDS011;32493;50.514;9.678;2023-04-01T00:23:23;7.88;;;1.40;;
46745;SDS011;32493;50.514;9.678;2023-04-01T00:25:28;5.22;;;1.20;;
46745;SDS011;32493;50.514;9.678;2023-04-01T00:27:36;6.10;;;0.90;;
46745;SDS011;32493;50.514;9.678;2023-04-01T00:29:41;8.05;;;1.45;;
46745;SDS011;32493;50.514;9.678;2023-04-01T00:31:47;6.15;;;1.23;;
46745;SDS011;32493;50.514;9.678;2023-04-01T00:33:52;4.38;;;1.10;;
46745;SDS011;32493;50.514;9.678;2023-04-01T00:36:05;6.53;;;1.20;;
46745;SDS011;32493;50.514;9.678;2023-04-01T00:38:13;6.18;;;1.35;;
46745;SDS011;32493;50.514;9.678;2023-04-01T00:40:23;7.88;;;1.30;;
46745;SDS011;32493;50.514;9.678;2023-04-01T00:42:31;5.55;;;1.75;;
46745;SDS011;32493;50.514;9.678;2023-04-01T00:44:40;7.18;;;1.50;;
46745;SDS011;32493;50.514;9.678;2023-04-01T00:46:46;7.38;;;1.20;;
46745;SDS011;32493;50.514;9.678;2023-04-01T00:48:52;5.60;;;1.10;;
46745;SDS011;32493;50.514;9.678;2023-04-01T00:51:00;7.53;;;1.52;;
46745;SDS011;32493;50.514;9.678;2023-04-01T00:53:10;6.93;;;1.20;;
46745;SDS011;32493;50.514;9.678;2023-04-01T00:55:16;4.45;;;1.10;;
46745;SDS011;32493;50.514;9.678;2023-04-01T00:57:25;4.20;;;1.10;;
46745;SDS011;32493;50.514;9.678;2023-04-01T00:59:35;5.45;;;1.20;;
46745;SDS011;32493;50.514;9.678;2023-04-01T01:01:47;6.75;;;1.40;;
46745;SDS011;32493;50.514;9.678;2023-04-01T01:03:52;4.53;;;1.33;;
46745;SDS011;32493;50.514;9.678;2023-04-01T01:06:02;6.13;;;1.60;;
46745;SDS011;32493;50.514;9.678;2023-04-01T01:08:39;7.63;;;1.30;;
46745;SDS011;32493;50.514;9.678;2023-04-01T01:11:09;5.90;;;1.42;;
46745;SDS011;32493;50.514;9.678;2023-04-01T01:13:16;1.10;;;0.63;;
46745;SDS011;32493;50.514;9.678;2023-04-01T01:15:32;6.05;;;1.30;;
46745;SDS011;32493;50.514;9.678;2023-04-01T01:17:53;7.28;;;2.00;;
46745;SDS011;32493;50.514;9.678;2023-04-01T01:20:24;5.60;;;1.38;;
46745;SDS011;32493;50.514;9.678;2023-04-01T01:25:50;9.13;;;1.63;;
46745;SDS011;32493;50.514;9.678;2023-04-01T01:28:21;6.80;;;1.10;;
46745;SDS011;32493;50.514;9.678;2023-04-01T01:30:45;6.72;;;1.48;;
46745;SDS011;32493;50.514;9.678;2023-04-01T01:35:40;7.97;;;1.50;;
46745;SDS011;32493;50.514;9.678;2023-04-01T01:37:53;5.20;;;1.38;;
46745;SDS011;32493;50.514;9.678;2023-04-01T01:40:04;6.60;;;1.23;;
46745;SDS011;32493;50.514;9.678;2023-04-01T01:42:15;5.25;;;1.50;;
46745;SDS011;32493;50.514;9.678;2023-04-01T01:44:23;4.18;;;1.30;;
46745;SDS011;32493;50.514;9.678;2023-04-01T01:46:31;7.75;;;1.10;;
46745;SDS011;32493;50.514;9.678;2023-04-01T01:48:37;7.53;;;1.35;;
46745;SDS011;32493;50.514;9.678;2023-04-01T01:50:46;5.60;;;1.20;;
46745;SDS011;32493;50.514;9.678;2023-04-01T01:53:00;5.68;;;1.40;;
46745;SDS011;32493;50.514;9.678;2023-04-01T01:55:22;6.55;;;1.33;;
46745;SDS011;32493;50.514;9.678;2023-04-01T01:57:33;10.13;;;1.55;;
46745;SDS011;32493;50.514;9.678;2023-04-01T01:59:48;7.53;;;1.20;;
46745;SDS011;32493;50.514;9.678;2023-04-01T02:02:00;7.65;;;1.70;;
46745;SDS011;32493;50.514;9.678;2023-04-01T02:04:09;8.23;;;1.42;;
46745;SDS011;32493;50.514;9.678;2023-04-01T02:06:21;5.25;;;1.10;;
46745;SDS011;32493;50.514;9.678;2023-04-01T02:08:30;8.70;;;1.40;;
46745;SDS011;32493;50.514;9.678;2023-04-01T02:10:40;8.48;;;1.30;;
46745;SDS011;32493;50.514;9.678;2023-04-01T02:12:56;5.22;;;1.60;;
46745;SDS011;32493;50.514;9.678;2023-04-01T02:15:08;6.05;;;1.30;;
46745;SDS011;32493;50.514;9.678;2023-04-01T02:17:18;5.63;;;1.30;;
46745;SDS011;32493;50.514;9.678;2023-04-01T02:19:33;4.82;;;1.10;;
46745;SDS011;32493;50.514;9.678;2023-04-01T02:21:45;6.70;;;1.13;;
46745;SDS011;32493;50.514;9.678;2023-04-01T02:23:51;7.57;;;1.33;;
46745;SDS011;32493;50.514;9.678;2023-04-01T02:25:59;7.05;;;1.30;;
46745;SDS011;32493;50.514;9.678;2023-04-01T02:28:06;5.90;;;1.20;;
46745;SDS011;32493;50.514;9.678;2023-04-01T02:30:14;10.18;;;1.60;;
46745;SDS011;32493;50.514;9.678;2023-04-01T02:32:21;7.35;;;1.23;;
46745;SDS011;32493;50.514;9.678;2023-04-01T02:34:26;6.05;;;1.10;;
46745;SDS011;32493;50.514;9.678;2023-04-01T02:36:34;6.22;;;1.20;;
46745;SDS011;32493;50.514;9.678;2023-04-01T02:38:43;8.57;;;1.10;;
46745;SDS011;32493;50.514;9.678;2023-04-01T02:40:51;7.85;;;1.50;;
46745;SDS011;32493;50.514;9.678;2023-04-01T02:43:02;4.43;;;1.00;;
46745;SDS011;32493;50.514;9.678;2023-04-01T02:45:07;5.60;;;1.10;;
46745;SDS011;32493;50.514;9.678;2023-04-01T02:47:15;4.05;;;1.35;;
46745;SDS011;32493;50.514;9.678;2023-04-01T02:49:20;6.70;;;1.13;;
46745;SDS011;32493;50.514;9.678;2023-04-01T02:51:26;4.47;;;1.70;;
46745;SDS011;32493;50.514;9.678;2023-04-01T02:53:32;6.57;;;1.20;;
46745;SDS011;32493;50.514;9.678;2023-04-01T02:55:41;8.52;;;1.48;;
46745;SDS011;32493;50.514;9.678;2023-04-01T02:57:46;7.35;;;1.50;;
46745;SDS011;32493;50.514;9.678;2023-04-01T02:59:51;6.25;;;1.30;;
46745;SDS011;32493;50.514;9.678;2023-04-01T03:01:57;4.32;;;1.15;;
46745;SDS011;32493;50.514;9.678;2023-04-01T03:04:02;6.68;;;1.48;;
46745;SDS011;32493;50.514;9.678;2023-04-01T03:06:09;5.18;;;1.30;;
46745;SDS011;32493;50.514;9.678;2023-04-01T03:08:17;9.07;;;1.30;;
46745;SDS011;32493;50.514;9.678;2023-04-01T03:10:23;7.47;;;1.00;;
46745;SDS011;32493;50.514;9.678;2023-04-01T03:12:31;7.78;;;1.52;;
46745;SDS011;32493;50.514;9.678;2023-04-01T03:16:41;6.20;;;1.83;;
46745;SDS011;32493;50.514;9.678;2023-04-01T03:18:46;7.90;;;1.00;;
46745;SDS011;32493;50.514;9.678;2023-04-01T03:20:54;3.92;;;1.05;;
46745;SDS011;32493;50.514;9.678;2023-04-01T03:22:59;7.72;;;1.25;;
46745;SDS011;32493;50.514;9.678;2023-04-01T03:25:05;9.20;;;1.40;;
46745;SDS011;32493;50.514;9.678;2023-04-01T03:27:12;5.30;;;1.35;;
46745;SDS011;32493;50.514;9.678;2023-04-01T03:29:20;7.50;;;1.25;;
46745;SDS011;32493;50.514;9.678;2023-04-01T03:31:26;8.30;;;1.27;;
46745;SDS011;32493;50.514;9.678;2023-04-01T03:33:32;8.35;;;1.20;;
46745;SDS011;32493;50.514;9.678;2023-04-01T03:35:37;7.85;;;1.55;;
46745;SDS011;32493;50.514;9.678;2023-04-01T03:37:42;6.75;;;0.98;;
46745;SDS011;32493;50.514;9.678;2023-04-01T03:39:47;7.30;;;1.55;;
46745;SDS011;32493;50.514;9.678;2023-04-01T03:41:53;7.72;;;1.73;;
46745;SDS011;32493;50.514;9.678;2023-04-01T03:43:58;9.85;;;1.10;;
46745;SDS011;32493;50.514;9.678;2023-04-01T03:46:06;4.22;;;1.30;;
46745;SDS011;32493;50.514;9.678;2023-04-01T03:48:12;5.00;;;1.00;;
46745;SDS011;32493;50.514;9.678;2023-04-01T03:50:18;3.17;;;1.20;;
46745;SDS011;32493;50.514;9.678;2023-04-01T03:52:23;4.75;;;0.82;;
46745;SDS011;32493;50.514;9.678;2023-04-01T03:54:29;6.07;;;0.90;;
46745;SDS011;32493;50.514;9.678;2023-04-01T03:56:34;4.40;;;0.80;;
46745;SDS011;32493;50.514;9.678;2023-04-01T03:58:39;5.47;;;1.05;;
46745;SDS011;32493;50.514;9.678;2023-04-01T04:00:46;6.03;;;1.15;;
46745;SDS011;32493;50.514;9.678;2023-04-01T04:02:54;3.83;;;1.10;;
46745;SDS011;32493;50.514;9.678;2023-04-01T04:05:05;5.60;;;1.00;;
46745;SDS011;32493;50.514;9.678;2023-04-01T04:07:11;3.40;;;0.75;;
46745;SDS011;32493;50.514;9.678;2023-04-01T04:09:36;6.10;;;1.00;;
46745;SDS011;32493;50.514;9.678;2023-04-01T04:11:42;3.92;;;0.90;;
46745;SDS011;32493;50.514;9.678;2023-04-01T04:13:47;3.35;;;0.93;;
46745;SDS011;32493;50.514;9.678;2023-04-01T04:15:54;10.52;;;1.30;;
46745;SDS011;32493;50.514;9.678;2023-04-01T04:18:02;7.95;;;1.13;;
46745;SDS011;32493;50.514;9.678;2023-04-01T04:20:08;3.50;;;0.80;;
46745;SDS011;32493;50.514;9.678;2023-04-01T04:22:14;2.92;;;0.95;;
46745;SDS011;32493;50.514;9.678;2023-04-01T04:24:19;4.82;;;1.23;;
46745;SDS011;32493;50.514;9.678;2023-04-01T04:26:40;7.30;;;1.10;;
46745;SDS011;32493;50.514;9.678;2023-04-01T04:28:45;3.28;;;0.90;;
46745;SDS011;32493;50.514;9.678;2023-04-01T04:30:52;4.75;;;0.90;;
46745;SDS011;32493;50.514;9.678;2023-04-01T04:32:58;4.82;;;1.65;;
46745;SDS011;32493;50.514;9.678;2023-04-01T04:35:06;7.43;;;1.25;;
46745;SDS011;32493;50.514;9.678;2023-04-01T04:37:12;4.18;;;0.88;;
46745;SDS011;32493;50.514;9.678;2023-04-01T04:39:18;5.68;;;1.10;;
46745;SDS011;32493;50.514;9.678;2023-04-01T04:41:24;7.45;;;1.13;;
46745;SDS011;32493;50.514;9.678;2023-04-01T04:43:29;9.05;;;1.00;;
46745;SDS011;32493;50.514;9.678;2023-04-01T04:45:34;4.65;;;0.90;;
46745;SDS011;32493;50.514;9.678;2023-04-01T04:47:39;5.57;;;1.13;;
46745;SDS011;32493;50.514;9.678;2023-04-01T04:49:45;6.13;;;1.08;;
46745;SDS011;32493;50.514;9.678;2023-04-01T04:51:54;4.05;;;1.00;;
46745;SDS011;32493;50.514;9.678;2023-04-01T04:54:01;4.65;;;0.90;;
46745;SDS011;32493;50.514;9.678;2023-04-01T04:56:24;9.25;;;1.50;;
46745;SDS011;32493;50.514;9.678;2023-04-01T04:58:49;6.75;;;1.25;;
46745;SDS011;32493;50.514;9.678;2023-04-01T05:00:59;5.95;;;1.00;;
46745;SDS011;32493;50.514;9.678;2023-04-01T05:03:10;9.93;;;1.50;;
46745;SDS011;32493;50.514;9.678;2023-04-01T05:05:17;4.90;;;1.02;;
46745;SDS011;32493;50.514;9.678;2023-04-01T05:07:24;6.03;;;1.33;;
46745;SDS011;32493;50.514;9.678;2023-04-01T05:11:36;5.72;;;1.10;;
46745;SDS011;32493;50.514;9.678;2023-04-01T05:13:41;5.30;;;1.08;;
46745;SDS011;32493;50.514;9.678;2023-04-01T05:15:48;8.05;;;1.20;;
46745;SDS011;32493;50.514;9.678;2023-04-01T05:17:53;4.95;;;1.20;;
46745;SDS011;32493;50.514;9.678;2023-04-01T05:19:58;3.92;;;0.98;;
46745;SDS011;32493;50.514;9.678;2023-04-01T05:22:04;4.07;;;1.85;;
46745;SDS011;32493;50.514;9.678;2023-04-01T05:24:12;6.55;;;1.65;;
46745;SDS011;32493;50.514;9.678;2023-04-01T05:26:18;7.53;;;2.05;;
46745;SDS011;32493;50.514;9.678;2023-04-01T05:28:23;4.57;;;1.10;;
46745;SDS011;32493;50.514;9.678;2023-04-01T05:30:29;4.70;;;1.10;;
46745;SDS011;32493;50.514;9.678;2023-04-01T05:34:42;5.47;;;1.15;;
46745;SDS011;32493;50.514;9.678;2023-04-01T05:36:47;5.38;;;1.20;;
46745;SDS011;32493;50.514;9.678;2023-04-01T05:38:54;7.22;;;1.05;;
46745;SDS011;32493;50.514;9.678;2023-04-01T05:41:04;7.07;;;1.10;;
46745;SDS011;32493;50.514;9.678;2023-04-01T05:43:13;4.70;;;1.00;;
46745;SDS011;32493;50.514;9.678;2023-04-01T05:45:21;5.35;;;1.23;;
46745;SDS011;32493;50.514;9.678;2023-04-01T05:47:49;4.57;;;1.65;;
46745;SDS011;32493;50.514;9.678;2023-04-01T05:49:54;6.15;;;0.88;;
46745;SDS011;32493;50.514;9.678;2023-04-01T05:52:00;4.03;;;1.05;;
46745;SDS011;32493;50.514;9.678;2023-04-01T05:54:08;6.05;;;1.33;;
46745;SDS011;32493;50.514;9.678;2023-04-01T05:56:17;4.82;;;1.20;;
46745;SDS011;32493;50.514;9.678;2023-04-01T05:58:25;4.45;;;1.00;;
46745;SDS011;32493;50.514;9.678;2023-04-01T06:00:30;5.18;;;1.00;;
46745;SDS011;32493;50.514;9.678;2023-04-01T06:02:36;5.65;;;1.17;;
46745;SDS011;32493;50.514;9.678;2023-04-01T06:04:43;4.88;;;1.17;;
46745;SDS011;32493;50.514;9.678;2023-04-01T06:06:49;4.78;;;0.90;;
46745;SDS011;32493;50.514;9.678;2023-04-01T06:08:55;6.50;;;1.10;;
46745;SDS011;32493;50.514;9.678;2023-04-01T06:11:10;4.10;;;1.00;;
46745;SDS011;32493;50.514;9.678;2023-04-01T06:13:37;3.45;;;0.93;;
46745;SDS011;32493;50.514;9.678;2023-04-01T06:16:10;4.68;;;1.10;;
46745;SDS011;32493;50.514;9.678;2023-04-01T06:21:07;5.60;;;0.85;;
46745;SDS011;32493;50.514;9.678;2023-04-01T06:23:41;6.03;;;1.27;;
46745;SDS011;32493;50.514;9.678;2023-04-01T06:26:03;5.78;;;1.10;;
46745;SDS011;32493;50.514;9.678;2023-04-01T06:31:36;8.65;;;1.83;;
46745;SDS011;32493;50.514;9.678;2023-04-01T06:34:03;5.68;;;1.08;;
46745;SDS011;32493;50.514;9.678;2023-04-01T06:39:10;5.63;;;1.30;;
46745;SDS011;32493;50.514;9.678;2023-04-01T06:44:17;4.40;;;0.80;;
46745;SDS011;32493;50.514;9.678;2023-04-01T06:46:47;6.53;;;0.90;;
46745;SDS011;32493;50.514;9.678;2023-04-01T06:49:26;7.18;;;1.10;;
46745;SDS011;32493;50.514;9.678;2023-04-01T06:52:06;2.78;;;0.75;;
46745;SDS011;32493;50.514;9.678;2023-04-01T06:54:40;8.52;;;1.63;;
46745;SDS011;32493;50.514;9.678;2023-04-01T06:57:18;6.07;;;1.08;;
46745;SDS011;32493;50.514;9.678;2023-04-01T06:59:34;4.72;;;0.90;;
46745;SDS011;32493;50.514;9.678;2023-04-01T07:03:51;2.47;;;0.68;;
46745;SDS011;32493;50.514;9.678;2023-04-01T07:06:03;8.95;;;1.20;;
46745;SDS011;32493;50.514;9.678;2023-04-01T07:08:23;3.35;;;0.70;;
46745;SDS011;32493;50.514;9.678;2023-04-01T07:10:34;4.53;;;0.70;;
46745;SDS011;32493;50.514;9.678;2023-04-01T07:13:12;5.70;;;1.02;;
46745;SDS011;32493;50.514;9.678;2023-04-01T07:15:33;4.35;;;0.77;;
46745;SDS011;32493;50.514;9.678;2023-04-01T07:17:44;6.28;;;0.95;;
46745;SDS011;32493;50.514;9.678;2023-04-01T07:19:53;6.38;;;1.13;;
46745;SDS011;32493;50.514;9.678;2023-04-01T07:22:09;6.40;;;0.90;;
46745;SDS011;32493;50.514;9.678;2023-04-01T07:24:40;2.22;;;0.90;;
46745;SDS011;32493;50.514;9.678;2023-04-01T07:26:48;6.85;;;1.00;;
46745;SDS011;32493;50.514;9.678;2023-04-01T07:29:08;5.05;;;0.95;;
46745;SDS011;32493;50.514;9.678;2023-04-01T07:31:37;4.65;;;0.90;;
46745;SDS011;32493;50.514;9.678;2023-04-01T07:33:58;5.07;;;1.08;;
46745;SDS011;32493;50.514;9.678;2023-04-01T07:36:16;7.43;;;1.05;;
46745;SDS011;32493;50.514;9.678;2023-04-01T07:38:31;5.13;;;0.85;;
46745;SDS011;32493;50.514;9.678;2023-04-01T07:40:48;4.00;;;0.85;;
46745;SDS011;32493;50.514;9.678;2023-04-01T07:43:07;5.63;;;0.77;;
46745;SDS011;32493;50.514;9.678;2023-04-01T07:45:57;3.80;;;0.82;;
46745;SDS011;32493;50.514;9.678;2023-04-01T07:48:17;2.65;;;0.85;;
46745;SDS011;32493;50.514;9.678;2023-04-01T07:50:30;4.45;;;1.00;;
46745;SDS011;32493;50.514;9.678;2023-04-01T07:52:44;4.57;;;1.00;;
46745;SDS011;32493;50.514;9.678;2023-04-01T07:57:11;8.80;;;1.45;;
46745;SDS011;32493;50.514;9.678;2023-04-01T07:59:27;3.23;;;0.80;;
46745;SDS011;32493;50.514;9.678;2023-04-01T08:02:00;2.83;;;0.55;;
46745;SDS011;32493;50.514;9.678;2023-04-01T08:04:18;2.30;;;0.60;;
46745;SDS011;32493;50.514;9.678;2023-04-01T08:06:44;3.25;;;0.70;;
46745;SDS011;32493;50.514;9.678;2023-04-01T08:08:59;3.60;;;0.93;;
46745;SDS011;32493;50.514;9.678;2023-04-01T08:11:34;2.58;;;0.68;;
46745;SDS011;32493;50.514;9.678;2023-04-01T08:14:36;4.63;;;0.80;;
46745;SDS011;32493;50.514;9.678;2023-04-01T08:17:19;2.83;;;0.80;;
46745;SDS011;32493;50.514;9.678;2023-04-01T08:19:43;3.78;;;0.90;;
46745;SDS011;32493;50.514;9.678;2023-04-01T08:22:07;3.80;;;0.68;;
46745;SDS011;32493;50.514;9.678;2023-04-01T08:24:21;2.83;;;0.98;;
46745;SDS011;32493;50.514;9.678;2023-04-01T08:26:51;2.95;;;0.52;;
46745;SDS011;32493;50.514;9.678;2023-04-01T08:29:01;4.68;;;0.80;;
46745;SDS011;32493;50.514;9.678;2023-04-01T08:31:13;2.25;;;0.75;;
46745;SDS011;32493;50.514;9.678;2023-04-01T08:33:27;5.45;;;0.80;;
46745;SDS011;32493;50.514;9.678;2023-04-01T08:35:42;2.78;;;0.60;;
46745;SDS011;32493;50.514;9.678;2023-04-01T08:37:53;6.75;;;0.70;;
46745;SDS011;32493;50.514;9.678;2023-04-01T08:40:14;2.90;;;0.60;;
46745;SDS011;32493;50.514;9.678;2023-04-01T08:43:09;3.30;;;0.68;;
46745;SDS011;32493;50.514;9.678;2023-04-01T08:45:26;1.30;;;0.50;;
46745;SDS011;32493;50.514;9.678;2023-04-01T08:48:13;1.95;;;0.77;;
46745;SDS011;32493;50.514;9.678;2023-04-01T08:53:26;1.55;;;0.60;;
46745;SDS011;32493;50.514;9.678;2023-04-01T08:55:56;2.10;;;0.60;;
46745;SDS011;32493;50.514;9.678;2023-04-01T08:58:33;1.63;;;0.70;;
46745;SDS011;32493;50.514;9.678;2023-04-01T09:01:13;1.02;;;0.40;;
46745;SDS011;32493;50.514;9.678;2023-04-01T09:06:15;3.05;;;0.50;;
46745;SDS011;32493;50.514;9.678;2023-04-01T09:08:41;2.50;;;0.60;;
46745;SDS011;32493;50.514;9.678;2023-04-01T09:11:06;1.00;;;0.55;;
46745;SDS011;32493;50.514;9.678;2023-04-01T09:13:35;1.27;;;0.50;;
46745;SDS011;32493;50.514;9.678;2023-04-01T09:18:41;2.53;;;0.57;;
46745;SDS011;32493;50.514;9.678;2023-04-01T09:21:22;2.85;;;0.95;;
46745;SDS011;32493;50.514;9.678;2023-04-01T09:24:26;4.07;;;0.73;;
46745;SDS011;32493;50.514;9.678;2023-04-01T09:26:59;2.63;;;0.68;;
46745;SDS011;32493;50.514;9.678;2023-04-01T09:29:15;2.30;;;0.60;;
46745;SDS011;32493;50.514;9.678;2023-04-01T09:31:43;2.47;;;0.50;;
46745;SDS011;32493;50.514;9.678;2023-04-01T09:34:26;2.95;;;0.55;;
46745;SDS011;32493;50.514;9.678;2023-04-01T09:36:52;1.33;;;0.63;;
46745;SDS011;32493;50.514;9.678;2023-04-01T09:39:18;3.95;;;0.70;;
46745;SDS011;32493;50.514;9.678;2023-04-01T09:41:46;1.83;;;0.70;;
46745;SDS011;32493;50.514;9.678;2023-04-01T09:44:18;2.72;;;0.70;;
46745;SDS011;32493;50.514;9.678;2023-04-01T09:46:54;4.63;;;0.70;;
46745;SDS011;32493;50.514;9.678;2023-04-01T09:52:20;0.70;;;0.50;;
46745;SDS011;32493;50.514;9.678;2023-04-01T09:54:49;1.50;;;0.60;;
46745;SDS011;32493;50.514;9.678;2023-04-01T09:57:18;0.85;;;0.40;;
46745;SDS011;32493;50.514;9.678;2023-04-01T10:00:39;3.50;;;0.40;;
46745;SDS011;32493;50.514;9.678;2023-04-01T10:15:18;3.42;;;0.60;;
46745;SDS011;32493;50.514;9.678;2023-04-01T10:18:08;1.90;;;0.73;;
46745;SDS011;32493;50.514;9.678;2023-04-01T10:20:43;2.22;;;0.65;;
46745;SDS011;32493;50.514;9.678;2023-04-01T10:26:32;1.33;;;0.40;;
46745;SDS011;32493;50.514;9.678;2023-04-01T10:30:02;1.08;;;0.57;;
46745;SDS011;32493;50.514;9.678;2023-04-01T10:38:33;0.52;;;0.47;;
46745;SDS011;32493;50.514;9.678;2023-04-01T10:41:17;0.70;;;0.40;;
46745;SDS011;32493;50.514;9.678;2023-04-01T10:46:49;1.75;;;0.50;;
46745;SDS011;32493;50.514;9.678;2023-04-01T10:49:32;0.43;;;0.40;;
46745;SDS011;32493;50.514;9.678;2023-04-01T10:52:06;0.85;;;0.50;;
46745;SDS011;32493;50.514;9.678;2023-04-01T10:54:54;2.47;;;0.43;;
46745;SDS011;32493;50.514;9.678;2023-04-01T10:57:53;3.20;;;0.55;;
46745;SDS011;32493;50.514;9.678;2023-04-01T11:07:17;0.73;;;0.50;;
46745;SDS011;32493;50.514;9.678;2023-04-01T11:10:26;1.95;;;0.40;;
46745;SDS011;32493;50.514;9.678;2023-04-01T11:13:31;0.80;;;0.40;;
46745;SDS011;32493;50.514;9.678;2023-04-01T11:16:22;2.17;;;0.73;;
46745;SDS011;32493;50.514;9.678;2023-04-01T11:21:50;1.48;;;0.40;;
46745;SDS011;32493;50.514;9.678;2023-04-01T11:27:13;1.70;;;0.30;;
46745;SDS011;32493;50.514;9.678;2023-04-01T11:29:52;1.33;;;0.43;;
46745;SDS011;32493;50.514;9.678;2023-04-01T11:32:21;1.63;;;0.45;;
46745;SDS011;32493;50.514;9.678;2023-04-01T11:34:42;0.50;;;0.40;;
46745;SDS011;32493;50.514;9.678;2023-04-01T11:37:11;0.77;;;0.40;;
46745;SDS011;32493;50.514;9.678;2023-04-01T11:39:59;1.98;;;0.65;;
46745;SDS011;32493;50.514;9.678;2023-04-01T11:42:35;1.00;;;0.73;;
46745;SDS011;32493;50.514;9.678;2023-04-01T11:45:25;1.50;;;0.68;;
46745;SDS011;32493;50.514;9.678;2023-04-01T11:47:56;1.20;;;0.60;;
46745;SDS011;32493;50.514;9.678;2023-04-01T11:50:20;0.80;;;0.80;;
46745;SDS011;32493;50.514;9.678;2023-04-01T11:55:12;1.10;;;0.50;;
46745;SDS011;32493;50.514;9.678;2023-04-01T11:57:35;1.60;;;0.57;;
46745;SDS011;32493;50.514;9.678;2023-04-01T11:59:58;0.55;;;0.40;;
46745;SDS011;32493;50.514;9.678;2023-04-01T12:02:23;1.27;;;0.52;;
46745;SDS011;32493;50.514;9.678;2023-04-01T12:04:44;0.88;;;0.63;;
46745;SDS011;32493;50.514;9.678;2023-04-01T12:07:01;1.35;;;0.55;;
46745;SDS011;32493;50.514;9.678;2023-04-01T12:09:18;0.68;;;0.57;;
46745;SDS011;32493;50.514;9.678;2023-04-01T12:11:33;1.65;;;0.50;;
46745;SDS011;32493;50.514;9.678;2023-04-01T12:13:51;2.65;;;0.90;;
46745;SDS011;32493;50.514;9.678;2023-04-01T12:16:10;1.70;;;0.50;;
46745;SDS011;32493;50.514;9.678;2023-04-01T12:18:35;1.52;;;0.70;;
46745;SDS011;32493;50.514;9.678;2023-04-01T12:20:48;0.68;;;0.57;;
46745;SDS011;32493;50.514;9.678;2023-04-01T12:23:03;0.80;;;0.60;;
46745;SDS011;32493;50.514;9.678;2023-04-01T12:25:28;0.85;;;0.50;;
46745;SDS011;32493;50.514;9.678;2023-04-01T12:27:56;0.88;;;0.50;;
46745;SDS011;32493;50.514;9.678;2023-04-01T12:30:26;0.55;;;0.50;;
46745;SDS011;32493;50.514;9.678;2023-04-01T12:32:45;0.50;;;0.50;;
46745;SDS011;32493;50.514;9.678;2023-04-01T12:37:24;0.85;;;0.50;;
46745;SDS011;32493;50.514;9.678;2023-04-01T12:41:59;0.47;;;0.47;;
46745;SDS011;32493;50.514;9.678;2023-04-01T12:47:13;1.38;;;0.50;;
46745;SDS011;32493;50.514;9.678;2023-04-01T12:50:01;2.40;;;0.80;;
46745;SDS011;32493;50.514;9.678;2023-04-01T12:52:38;0.55;;;0.40;;
46745;SDS011;32493;50.514;9.678;2023-04-01T12:57:47;0.70;;;0.50;;
46745;SDS011;32493;50.514;9.678;2023-04-01T13:00:18;0.75;;;0.50;;
46745;SDS011;32493;50.514;9.678;2023-04-01T13:02:57;0.60;;;0.40;;
46745;SDS011;32493;50.514;9.678;2023-04-01T13:05:44;3.45;;;0.50;;
46745;SDS011;32493;50.514;9.678;2023-04-01T13:08:27;0.40;;;0.40;;
46745;SDS011;32493;50.514;9.678;2023-04-01T13:10:53;0.30;;;0.30;;
46745;SDS011;32493;50.514;9.678;2023-04-01T13:13:20;1.60;;;0.40;;
46745;SDS011;32493;50.514;9.678;2023-04-01T13:16:01;0.30;;;0.30;;
46745;SDS011;32493;50.514;9.678;2023-04-01T13:18:16;0.63;;;0.60;;
46745;SDS011;32493;50.514;9.678;2023-04-01T13:20:36;0.70;;;0.40;;
46745;SDS011;32493;50.514;9.678;2023-04-01T13:23:01;0.93;;;0.70;;
46745;SDS011;32493;50.514;9.678;2023-04-01T13:25:21;1.98;;;0.70;;
46745;SDS011;32493;50.514;9.678;2023-04-01T13:27:38;0.40;;;0.30;;
46745;SDS011;32493;50.514;9.678;2023-04-01T13:29:53;0.40;;;0.40;;
46745;SDS011;32493;50.514;9.678;2023-04-01T13:32:18;0.60;;;0.40;;
46745;SDS011;32493;50.514;9.678;2023-04-01T13:34:48;0.40;;;0.40;;
46745;SDS011;32493;50.514;9.678;2023-04-01T13:37:18;0.30;;;0.30;;
46745;SDS011;32493;50.514;9.678;2023-04-01T13:39:41;1.00;;;0.40;;
46745;SDS011;32493;50.514;9.678;2023-04-01T13:42:19;0.47;;;0.45;;
46745;SDS011;32493;50.514;9.678;2023-04-01T13:44:30;0.90;;;0.30;;
46745;SDS011;32493;50.514;9.678;2023-04-01T13:46:48;1.05;;;0.47;;
46745;SDS011;32493;50.514;9.678;2023-04-01T13:49:22;1.00;;;0.52;;
46745;SDS011;32493;50.514;9.678;2023-04-01T13:51:52;0.60;;;0.50;;
46745;SDS011;32493;50.514;9.678;2023-04-01T13:57:19;0.65;;;0.50;;
46745;SDS011;32493;50.514;9.678;2023-04-01T13:59:40;0.65;;;0.43;;
46745;SDS011;32493;50.514;9.678;2023-04-01T14:02:13;0.60;;;0.43;;
46745;SDS011;32493;50.514;9.678;2023-04-01T14:04:47;0.60;;;0.50;;
46745;SDS011;32493;50.514;9.678;2023-04-01T14:07:21;2.08;;;0.47;;
46745;SDS011;32493;50.514;9.678;2023-04-01T14:09:52;0.77;;;0.40;;
46745;SDS011;32493;50.514;9.678;2023-04-01T14:12:14;0.40;;;0.40;;
46745;SDS011;32493;50.514;9.678;2023-04-01T14:14:36;0.52;;;0.30;;
46745;SDS011;32493;50.514;9.678;2023-04-01T14:17:10;2.22;;;0.50;;
46745;SDS011;32493;50.514;9.678;2023-04-01T14:19:46;0.57;;;0.40;;
46745;SDS011;32493;50.514;9.678;2023-04-01T14:22:05;0.68;;;0.50;;
46745;SDS011;32493;50.514;9.678;2023-04-01T14:24:31;0.30;;;0.30;;
46745;SDS011;32493;50.514;9.678;2023-04-01T14:27:21;0.98;;;0.40;;
46745;SDS011;32493;50.514;9.678;2023-04-01T14:29:51;0.40;;;0.30;;
46745;SDS011;32493;50.514;9.678;2023-04-01T14:32:11;0.77;;;0.40;;
46745;SDS011;32493;50.514;9.678;2023-04-01T14:34:25;0.45;;;0.30;;
46745;SDS011;32493;50.514;9.678;2023-04-01T14:41:59;0.73;;;0.50;;
46745;SDS011;32493;50.514;9.678;2023-04-01T14:47:24;0.75;;;0.40;;
46745;SDS011;32493;50.514;9.678;2023-04-01T14:49:45;0.90;;;0.50;;
46745;SDS011;32493;50.514;9.678;2023-04-01T14:51:53;0.73;;;0.57;;
46745;SDS011;32493;50.514;9.678;2023-04-01T14:54:00;0.50;;;0.50;;
46745;SDS011;32493;50.514;9.678;2023-04-01T14:56:13;1.20;;;0.40;;
46745;SDS011;32493;50.514;9.678;2023-04-01T14:58:47;0.60;;;0.50;;
46745;SDS011;32493;50.514;9.678;2023-04-01T15:01:00;0.50;;;0.50;;
46745;SDS011;32493;50.514;9.678;2023-04-01T15:03:25;1.70;;;0.60;;
46745;SDS011;32493;50.514;9.678;2023-04-01T15:05:39;1.45;;;0.82;;
46745;SDS011;32493;50.514;9.678;2023-04-01T15:07:56;1.77;;;1.00;;
46745;SDS011;32493;50.514;9.678;2023-04-01T15:10:31;0.70;;;0.63;;
46745;SDS011;32493;50.514;9.678;2023-04-01T15:13:15;1.25;;;0.73;;
46745;SDS011;32493;50.514;9.678;2023-04-01T15:15:32;0.68;;;0.60;;
46745;SDS011;32493;50.514;9.678;2023-04-01T15:17:54;3.45;;;0.77;;
46745;SDS011;32493;50.514;9.678;2023-04-01T15:20:15;2.65;;;0.60;;
46745;SDS011;32493;50.514;9.678;2023-04-01T15:22:43;1.65;;;0.60;;
46745;SDS011;32493;50.514;9.678;2023-04-01T15:25:25;0.70;;;0.40;;
46745;SDS011;32493;50.514;9.678;2023-04-01T15:27:44;2.20;;;0.55;;
46745;SDS011;32493;50.514;9.678;2023-04-01T15:30:01;0.70;;;0.50;;
46745;SDS011;32493;50.514;9.678;2023-04-01T15:32:29;1.05;;;0.40;;
46745;SDS011;32493;50.514;9.678;2023-04-01T15:34:53;1.05;;;0.30;;
46745;SDS011;32493;50.514;9.678;2023-04-01T15:37:08;3.10;;;0.40;;